Time;durP1;ratioP1;P1;durP2;ratioP2;P2;SDS_P1;SDS_P2;PMS_P1;PMS_P2;Temp;Humidity;BMP_temperature;BMP_pressure;BME280_temperature;BME280_humidity;BME280_pressure;Samples;Min_cycle;Max_cycle;Signal;HPM_P1;HPM_P2
2023/12/13 00:02:38;;;;;;;25.35;12.35;;;;;;;;;;6091067;23;20028;-85
2023/12/13 00:05:09;;;;;;;26.17;12.18;;;;;;;;;;6084137;23;20014;-85
2023/12/13 00:07:44;;;;;;;30.05;13.18;;;;;;;;;;6066683;23;20582;-85
2023/12/13 00:10:16;;;;;;;26.70;12.88;;;;;;;;;;6067655;23;20029;-85
2023/12/13 00:16:11;;;;;;;;;;;;;;;;;;;;;
2023/12/13 00:18:55;;;;;;;30.25;12.35;;;;;;;;;;6092450;23;20025;-85
2023/12/13 00:21:36;;;;;;;;;;;;;;;;;;;;;
2023/12/13 00:24:36;;;;;;;28.38;12.85;;;;;;;;;;6125432;23;20025;-85
2023/12/13 00:27:15;;;;;;;;;;;;;;;;;;;;;
2023/12/13 00:29:48;;;;;;;38.30;13.70;;;;;;;;;;6120141;23;20013;-85
2023/12/13 00:32:32;;;;;;;27.55;11.93;;;;;;;;;;6141312;23;20022;-85
2023/12/13 00:35:26;;;;;;;29.45;12.07;;;;;;;;;;6133874;23;20404;-85
2023/12/13 00:37:56;;;;;;;29.90;12.05;;;;;;;;;;6116830;23;20022;-85
2023/12/13 00:40:24;;;;;;;28.20;11.80;;;;;;;;;;6118643;23;20104;-85
2023/12/13 00:43:27;;;;;;;;;;;;;;;;;;;;;
2023/12/13 00:49:14;;;;;;;32.00;11.85;;;;;;;;;;6141285;23;20029;-85
2023/12/13 00:52:03;;;;;;;28.75;11.25;;;;;;;;;;6116987;23;20028;-85
2023/12/13 00:54:35;;;;;;;29.15;12.13;;;;;;;;;;6140018;23;20100;-85
2023/12/13 00:57:06;;;;;;;26.98;11.68;;;;;;;;;;6115692;23;20017;-86
2023/12/13 00:59:41;;;;;;;24.67;11.70;;;;;;;;;;6118436;23;20028;-86
2023/12/13 01:02:14;;;;;;;26.27;12.00;;;;;;;;;;6114796;23;20052;-86
2023/12/13 01:04:52;;;;;;;27.17;12.52;;;;;;;;;;6119956;23;20013;-85
2023/12/13 01:07:21;;;;;;;32.00;13.87;;;;;;;;;;6089760;23;20025;-85
2023/12/13 01:10:24;;;;;;;34.72;13.55;;;;;;;;;;6085662;23;20284;-85
2023/12/13 01:13:06;;;;;;;30.58;14.18;;;;;;;;;;6140230;23;20021;-85
2023/12/13 01:15:51;;;;;;;40.75;17.15;;;;;;;;;;6119663;23;20432;-86
2023/12/13 01:19:14;;;;;;;37.25;15.90;;;;;;;;;;6141956;23;20028;-85
2023/12/13 01:21:43;;;;;;;37.47;15.75;;;;;;;;;;6031143;23;20391;-85
2023/12/13 01:24:23;;;;;;;32.33;14.73;;;;;;;;;;6026221;23;20025;-85
2023/12/13 01:27:26;;;;;;;44.78;16.15;;;;;;;;;;6035412;23;20020;-85
2023/12/13 01:30:28;;;;;;;28.65;14.55;;;;;;;;;;6035728;23;20189;-85
2023/12/13 01:33:12;;;;;;;34.42;15.10;;;;;;;;;;6096861;23;20017;-85
2023/12/13 01:35:41;;;;;;;37.60;17.30;;;;;;;;;;6141616;23;20025;-85
2023/12/13 01:38:25;;;;;;;33.80;16.20;;;;;;;;;;6119284;23;20057;-85
2023/12/13 01:41:05;;;;;;;37.85;16.17;;;;;;;;;;6137984;23;20022;-85
2023/12/13 01:43:44;;;;;;;33.53;16.65;;;;;;;;;;6118526;23;20018;-85
2023/12/13 01:46:17;;;;;;;33.75;15.13;;;;;;;;;;6117762;23;20025;-85
2023/12/13 01:48:59;;;;;;;36.25;16.63;;;;;;;;;;6091052;23;20073;-85
2023/12/13 01:51:33;;;;;;;40.95;16.90;;;;;;;;;;6114980;23;20024;-85
2023/12/13 01:54:07;;;;;;;33.08;16.55;;;;;;;;;;6114543;23;20029;-85
2023/12/13 01:56:52;;;;;;;37.92;16.20;;;;;;;;;;6117690;23;20462;-85
2023/12/13 01:59:36;;;;;;;35.90;15.73;;;;;;;;;;6119346;23;20698;-85
2023/12/13 02:02:37;;;;;;;35.85;15.40;;;;;;;;;;6093111;23;20028;-85
2023/12/13 02:05:39;;;;;;;35.60;15.32;;;;;;;;;;6140527;23;20103;-85
2023/12/13 02:11:24;;;;;;;31.90;14.43;;;;;;;;;;6069234;23;20026;-85
2023/12/13 02:14:10;;;;;;;;;;;;;;;;;;;;;
2023/12/13 02:16:53;;;;;;;37.08;15.45;;;;;;;;;;6055563;23;20026;-84
2023/12/13 02:22:26;;;;;;;35.95;15.13;;;;;;;;;;6136737;23;20037;-85
2023/12/13 02:25:05;;;;;;;32.03;15.77;;;;;;;;;;6115601;23;20021;-85
2023/12/13 02:27:41;;;;;;;36.38;15.15;;;;;;;;;;6141813;23;20075;-84
2023/12/13 02:30:23;;;;;;;29.02;14.35;;;;;;;;;;6111659;23;20045;-85
2023/12/13 02:32:53;;;;;;;26.55;14.27;;;;;;;;;;6114631;23;20342;-84
2023/12/13 02:39:06;;;;;;;27.08;12.63;;;;;;;;;;6126052;23;20020;-85
2023/12/13 02:41:42;;;;;;;29.15;14.23;;;;;;;;;;6073337;23;20314;-85
2023/12/13 02:44:48;;;;;;;28.15;12.85;;;;;;;;;;6114522;23;20092;-85
2023/12/13 02:47:42;;;;;;;24.63;12.63;;;;;;;;;;6130508;23;20123;-85
2023/12/13 02:50:46;;;;;;;22.08;12.73;;;;;;;;;;6116600;23;20017;-85
2023/12/13 02:53:22;;;;;;;34.17;12.82;;;;;;;;;;6009748;23;20439;-85
2023/12/13 02:55:53;;;;;;;21.52;11.35;;;;;;;;;;6060383;23;20101;-85
2023/12/13 02:58:30;;;;;;;27.38;12.20;;;;;;;;;;6110477;23;20076;-85
2023/12/13 03:01:21;;;;;;;25.45;12.57;;;;;;;;;;6130486;23;20038;-85
2023/12/13 03:03:50;;;;;;;25.70;12.07;;;;;;;;;;6127434;23;20054;-84
2023/12/13 03:06:33;;;;;;;25.48;11.80;;;;;;;;;;6065099;23;20017;-85
2023/12/13 03:09:33;;;;;;;;;;;;;;;;;;;;;
2023/12/13 03:12:15;;;;;;;;;;;;;;;;;;;;;
2023/12/13 03:15:01;;;;;;;20.40;10.63;;;;;;;;;;6090145;23;20017;-85
2023/12/13 03:17:43;;;;;;;20.58;10.50;;;;;;;;;;6127950;23;20028;-85
2023/12/13 03:20:35;;;;;;;24.10;11.07;;;;;;;;;;6110909;23;20438;-85
2023/12/13 03:23:44;;;;;;;24.42;10.82;;;;;;;;;;6054486;23;20022;-85
2023/12/13 03:26:22;;;;;;;22.05;11.05;;;;;;;;;;6017013;23;20243;-85
2023/12/13 03:29:11;;;;;;;19.98;9.95;;;;;;;;;;6009918;23;20033;-85
2023/12/13 03:31:38;;;;;;;23.15;9.80;;;;;;;;;;6010292;23;20694;-85
2023/12/13 03:34:20;;;;;;;22.88;10.80;;;;;;;;;;6052831;23;20022;-85
2023/12/13 03:37:33;;;;;;;;;;;;;;;;;;;;;
2023/12/13 03:40:16;;;;;;;24.60;10.40;;;;;;;;;;6066269;23;20025;-85
2023/12/13 03:43:04;;;;;;;;;;;;;;;;;;;;;
2023/12/13 03:46:09;;;;;;;17.67;9.38;;;;;;;;;;6057033;23;20018;-84
2023/12/13 03:48:46;;;;;;;;;;;;;;;;;;;;;
2023/12/13 03:51:35;;;;;;;20.65;9.45;;;;;;;;;;5968234;23;20056;-85
2023/12/13 03:54:17;;;;;;;16.40;9.38;;;;;;;;;;5922007;23;20031;-85
2023/12/13 03:57:06;;;;;;;19.30;9.73;;;;;;;;;;5926904;23;20016;-85
2023/12/13 03:59:41;;;;;;;18.27;9.32;;;;;;;;;;5964979;23;20321;-85
2023/12/13 04:02:18;;;;;;;22.00;10.70;;;;;;;;;;5997782;23;20023;-84
2023/12/13 04:13:02;;;;;;;23.15;10.48;;;;;;;;;;6168123;23;20056;-86
2023/12/13 04:16:08;;;;;;;21.98;11.02;;;;;;;;;;6124569;23;20103;-85
2023/12/13 04:24:37;;;;;;;22.75;11.10;;;;;;;;;;6122481;23;20030;-85
2023/12/13 04:27:15;;;;;;;21.27;11.30;;;;;;;;;;6084826;23;20972;-85
2023/12/13 04:29:47;;;;;;;24.27;11.98;;;;;;;;;;6086861;23;20028;-85
2023/12/13 04:32:17;;;;;;;23.27;11.65;;;;;;;;;;6114665;23;20069;-85
2023/12/13 04:34:49;;;;;;;28.23;10.97;;;;;;;;;;6088792;23;20010;-85
2023/12/13 04:40:51;;;;;;;;;;;;;;;;;;6111252;23;20469;-85
2023/12/13 04:43:18;;;;;;;23.70;11.93;;;;;;;;;;6086284;23;19921;-84
2023/12/13 04:45:48;;;;;;;24.05;11.98;;;;;;;;;;6086387;23;20014;-84
2023/12/13 04:48:32;;;;;;;25.00;10.93;;;;;;;;;;6086000;23;20116;-85
2023/12/13 04:50:59;;;;;;;24.10;11.32;;;;;;;;;;6095174;23;20018;-84
2023/12/13 04:53:27;;;;;;;24.25;11.68;;;;;;;;;;6085946;23;20022;-85
2023/12/13 04:55:57;;;;;;;28.45;11.75;;;;;;;;;;6082040;23;20017;-85
2023/12/13 04:58:49;;;;;;;23.50;12.18;;;;;;;;;;6061893;23;20079;-85
2023/12/13 05:01:24;;;;;;;25.15;12.02;;;;;;;;;;6108787;23;20040;-85
2023/12/13 05:03:50;;;;;;;21.30;10.70;;;;;;;;;;6057557;23;20539;-85
2023/12/13 05:06:34;;;;;;;24.63;12.85;;;;;;;;;;6088362;23;20022;-85
2023/12/13 05:09:07;;;;;;;26.30;12.30;;;;;;;;;;6084477;23;20025;-85
2023/12/13 05:11:35;;;;;;;26.45;12.75;;;;;;;;;;6087289;23;20056;-85
2023/12/13 05:14:04;;;;;;;21.73;12.38;;;;;;;;;;6083318;23;20316;-84
2023/12/13 05:16:30;;;;;;;;;;;;;;;;;;6061834;23;20053;-85
2023/12/13 05:22:18;;;;;;;23.48;12.07;;;;;;;;;;6076091;23;20034;-85
2023/12/13 05:24:57;;;;;;;23.92;12.63;;;;;;;;;;6085853;23;20482;-85
2023/12/13 05:27:24;;;;;;;24.02;12.60;;;;;;;;;;6089078;23;20064;-85
2023/12/13 05:29:53;;;;;;;27.52;13.63;;;;;;;;;;6086747;23;20017;-84
2023/12/13 05:32:20;;;;;;;29.75;13.15;;;;;;;;;;6085109;23;20056;-85
2023/12/13 05:34:49;;;;;;;26.77;12.60;;;;;;;;;;6088114;23;20017;-85
2023/12/13 05:37:17;;;;;;;26.55;12.77;;;;;;;;;;6116331;23;20022;-84
2023/12/13 05:50:39;;;;;;;28.83;14.50;;;;;;;;;;6138220;23;20191;-86
2023/12/13 05:53:09;;;;;;;24.75;12.38;;;;;;;;;;6110951;23;20029;-85
2023/12/13 05:55:36;;;;;;;24.25;12.70;;;;;;;;;;6090476;23;20076;-85
2023/12/13 06:01:38;;;;;;;28.70;13.45;;;;;;;;;;6144919;23;20087;-84
2023/12/13 06:04:15;;;;;;;24.52;12.13;;;;;;;;;;6064257;23;20026;-85
2023/12/13 06:06:48;;;;;;;23.45;12.40;;;;;;;;;;6093773;23;20638;-85
2023/12/13 06:09:19;;;;;;;24.65;13.13;;;;;;;;;;6114605;23;20032;-85
2023/12/13 06:11:49;;;;;;;26.23;12.45;;;;;;;;;;6141814;23;20021;-84
2023/12/13 06:14:24;;;;;;;23.30;12.50;;;;;;;;;;6114885;23;20098;-85
2023/12/13 06:16:51;;;;;;;22.58;12.30;;;;;;;;;;6059992;23;20347;-85
2023/12/13 06:19:52;;;;;;;29.42;13.63;;;;;;;;;;6091184;23;20021;-85
2023/12/13 06:22:30;;;;;;;26.63;13.65;;;;;;;;;;6114081;23;20048;-85
2023/12/13 06:25:00;;;;;;;22.65;12.18;;;;;;;;;;6116038;23;20025;-85
2023/12/13 06:27:51;;;;;;;22.90;12.75;;;;;;;;;;6091301;23;20422;-85
2023/12/13 06:30:21;;;;;;;23.48;12.90;;;;;;;;;;6111540;23;20089;-85
2023/12/13 06:32:52;;;;;;;24.48;12.93;;;;;;;;;;6063724;23;20028;-83
2023/12/13 06:35:20;;;;;;;24.48;12.43;;;;;;;;;;6086159;23;20088;-85
2023/12/13 06:45:39;;;;;;;25.65;12.75;;;;;;;;;;6107040;22;20032;-83
2023/12/13 06:48:08;;;;;;;33.22;13.48;;;;;;;;;;6075376;23;20064;-84
2023/12/13 07:09:51;;;;;;;27.67;13.25;;;;;;;;;;6117826;23;20026;-83
2023/12/13 07:12:28;;;;;;;25.10;13.85;;;;;;;;;;6083436;23;20026;-83
2023/12/13 07:15:03;;;;;;;27.42;14.18;;;;;;;;;;6081741;23;20106;-83
2023/12/13 07:17:42;;;;;;;28.02;14.75;;;;;;;;;;6084566;23;20018;-83
2023/12/13 07:20:20;;;;;;;23.48;12.25;;;;;;;;;;6106440;23;20024;-83
2023/12/13 07:29:33;;;;;;;26.67;12.45;;;;;;;;;;6007930;23;20034;-83
2023/12/13 07:32:12;;;;;;;25.45;12.57;;;;;;;;;;6019613;23;20065;-83
2023/12/13 07:34:48;;;;;;;26.20;12.27;;;;;;;;;;6023582;23;20026;-83
2023/12/13 07:37:49;;;;;;;26.17;12.63;;;;;;;;;;6031947;23;20073;-83
2023/12/13 07:40:16;;;;;;;25.17;12.32;;;;;;;;;;6016803;23;20025;-82
2023/12/13 07:42:47;;;;;;;29.13;12.97;;;;;;;;;;6081517;23;20021;-83
2023/12/13 07:45:13;;;;;;;24.73;13.05;;;;;;;;;;6049427;23;20272;-83
2023/12/13 07:48:03;;;;;;;23.50;12.48;;;;;;;;;;6077235;23;20154;-83
2023/12/13 07:53:59;;;;;;;31.00;13.63;;;;;;;;;;6105971;23;20476;-83
2023/12/13 07:56:25;;;;;;;27.30;13.18;;;;;;;;;;6050004;23;20080;-83
2023/12/13 07:59:00;;;;;;;23.63;12.75;;;;;;;;;;6049379;23;20177;-84
2023/12/13 08:09:04;;;;;;;24.23;12.45;;;;;;;;;;5972143;23;20067;-83
2023/12/13 08:12:01;;;;;;;25.38;12.00;;;;;;;;;;5906958;24;20092;-82
2023/12/13 08:15:02;;;;;;;;;;;;;;;;;;;;;
2023/12/13 08:21:10;;;;;;;26.02;13.40;;;;;;;;;;5868528;24;20036;-85
2023/12/13 08:24:16;;;;;;;28.35;13.88;;;;;;;;;;5882888;24;20057;-83
2023/12/13 08:27:05;;;;;;;26.42;13.23;;;;;;;;;;5886963;24;20100;-84
2023/12/13 08:35:53;;;;;;;28.80;13.93;;;;;;;;;;6135330;23;20029;-88
2023/12/13 08:38:19;;;;;;;31.23;14.25;;;;;;;;;;6115755;23;20013;-88
2023/12/13 08:40:45;;;;;;;31.17;15.43;;;;;;;;;;6067167;23;20124;-88
2023/12/13 08:43:12;;;;;;;33.17;14.27;;;;;;;;;;6093271;23;20132;-88
2023/12/13 08:45:38;;;;;;;34.60;14.43;;;;;;;;;;6114713;23;20080;-88
2023/12/13 08:48:05;;;;;;;30.33;14.10;;;;;;;;;;6067901;23;20312;-88
2023/12/13 08:50:31;;;;;;;28.98;13.90;;;;;;;;;;6069322;23;20327;-88
2023/12/13 08:52:57;;;;;;;36.65;13.80;;;;;;;;;;6115479;23;20490;-88
2023/12/13 08:55:23;;;;;;;29.48;13.98;;;;;;;;;;6093855;23;20403;-88
2023/12/13 08:57:49;;;;;;;27.70;14.93;;;;;;;;;;6115502;23;20033;-88
2023/12/13 09:00:15;;;;;;;30.05;15.10;;;;;;;;;;6070580;23;20021;-89
2023/12/13 09:02:42;;;;;;;36.85;15.05;;;;;;;;;;6069461;23;20028;-88
2023/12/13 09:05:08;;;;;;;33.25;13.95;;;;;;;;;;6091735;23;20013;-88
2023/12/13 09:07:34;;;;;;;28.67;14.05;;;;;;;;;;6090665;23;20506;-88
2023/12/13 09:10:00;;;;;;;30.63;14.52;;;;;;;;;;6066412;23;20328;-89
2023/12/13 09:12:27;;;;;;;33.60;14.57;;;;;;;;;;6118736;23;20025;-88
2023/12/13 09:14:53;;;;;;;33.10;13.82;;;;;;;;;;6116781;23;20025;-88
2023/12/13 09:17:19;;;;;;;34.33;14.07;;;;;;;;;;6095686;23;20065;-88
2023/12/13 09:19:46;;;;;;;32.15;14.30;;;;;;;;;;6141920;23;20393;-88
2023/12/13 09:22:13;;;;;;;30.60;13.55;;;;;;;;;;6116059;23;20107;-88
2023/12/13 09:24:39;;;;;;;28.58;13.95;;;;;;;;;;6141452;23;20017;-89
2023/12/13 09:27:05;;;;;;;28.88;13.38;;;;;;;;;;6139657;23;20101;-88
2023/12/13 09:29:31;;;;;;;27.65;12.98;;;;;;;;;;6093921;23;20530;-88
2023/12/13 09:31:58;;;;;;;30.60;13.85;;;;;;;;;;6093156;23;20032;-88
2023/12/13 09:34:24;;;;;;;28.60;14.88;;;;;;;;;;6117843;23;20029;-88
2023/12/13 09:36:50;;;;;;;30.88;14.07;;;;;;;;;;6067815;23;20025;-88
2023/12/13 09:39:16;;;;;;;36.35;14.85;;;;;;;;;;6117534;23;20347;-88
2023/12/13 09:41:44;;;;;;;31.23;13.38;;;;;;;;;;6118065;23;20439;-88
2023/12/13 09:44:10;;;;;;;33.33;15.03;;;;;;;;;;6141720;23;20028;-89
2023/12/13 09:46:37;;;;;;;32.95;14.60;;;;;;;;;;6141802;23;20017;-88
2023/12/13 09:49:03;;;;;;;30.70;14.48;;;;;;;;;;6140469;23;20017;-88
2023/12/13 09:51:30;;;;;;;34.25;14.73;;;;;;;;;;6117597;23;20022;-88
2023/12/13 09:53:56;;;;;;;30.50;14.75;;;;;;;;;;6140276;23;20270;-88
2023/12/13 09:56:22;;;;;;;34.25;14.60;;;;;;;;;;6069744;23;20021;-88
2023/12/13 09:58:48;;;;;;;42.83;15.75;;;;;;;;;;6092360;23;20014;-88
2023/12/13 10:01:16;;;;;;;31.23;15.32;;;;;;;;;;6143319;23;20032;-88
2023/12/13 10:03:42;;;;;;;37.53;15.60;;;;;;;;;;6143892;23;20435;-88
2023/12/13 10:06:08;;;;;;;39.47;15.25;;;;;;;;;;6091681;23;20017;-88
2023/12/13 10:08:35;;;;;;;39.65;15.30;;;;;;;;;;6092455;23;20017;-88
2023/12/13 10:11:01;;;;;;;37.65;16.40;;;;;;;;;;6139640;23;20028;-88
2023/12/13 10:13:27;;;;;;;35.25;16.48;;;;;;;;;;6117397;23;20028;-88
2023/12/13 10:15:53;;;;;;;33.72;15.55;;;;;;;;;;6141612;23;20011;-89
2023/12/13 10:18:19;;;;;;;37.47;16.38;;;;;;;;;;6143193;23;20426;-88
2023/12/13 10:20:47;;;;;;;37.10;16.02;;;;;;;;;;6094638;23;20338;-88
2023/12/13 10:23:16;;;;;;;40.70;17.60;;;;;;;;;;6064972;23;20076;-88
2023/12/13 10:25:42;;;;;;;35.08;16.30;;;;;;;;;;6089618;23;20039;-88
2023/12/13 10:28:08;;;;;;;39.05;17.88;;;;;;;;;;6133277;23;20335;-88
2023/12/13 10:30:35;;;;;;;36.20;17.77;;;;;;;;;;6063634;23;20190;-88
2023/12/13 10:33:01;;;;;;;39.67;17.98;;;;;;;;;;6109743;23;20422;-88
2023/12/13 10:35:27;;;;;;;38.83;16.30;;;;;;;;;;6113222;23;20036;-88
2023/12/13 10:37:55;;;;;;;33.67;16.17;;;;;;;;;;6110893;23;20350;-89
2023/12/13 10:40:21;;;;;;;37.25;17.45;;;;;;;;;;6140130;23;20020;-89
2023/12/13 10:42:49;;;;;;;32.80;15.50;;;;;;;;;;6109948;23;20028;-89
2023/12/13 10:45:15;;;;;;;33.88;16.02;;;;;;;;;;6091211;23;20343;-88
2023/12/13 10:47:45;;;;;;;38.03;16.58;;;;;;;;;;6135246;23;20013;-90
2023/12/13 10:50:11;;;;;;;28.40;15.23;;;;;;;;;;6134036;23;20024;-88
2023/12/13 10:52:45;;;;;;;32.45;15.85;;;;;;;;;;6140875;23;20025;-89
2023/12/13 10:55:14;;;;;;;36.00;15.88;;;;;;;;;;6060318;23;20461;-88
2023/12/13 11:01:55;;;;;;;39.13;16.08;;;;;;;;;;6028072;23;20523;-88
2023/12/13 11:07:44;;;;;;;30.23;15.30;;;;;;;;;;6113813;23;20060;-88
2023/12/13 11:10:10;;;;;;;34.45;15.90;;;;;;;;;;6085030;23;20025;-88
2023/12/13 11:16:07;;;;;;;33.67;16.58;;;;;;;;;;6019303;23;20050;-88
2023/12/13 11:18:36;;;;;;;34.60;15.68;;;;;;;;;;6065676;23;20017;-88
2023/12/13 11:21:32;;;;;;;35.75;15.93;;;;;;;;;;6088468;23;20065;-88
2023/12/13 11:24:00;;;;;;;38.03;16.90;;;;;;;;;;6086054;23;20382;-89
2023/12/13 11:26:33;;;;;;;33.70;15.43;;;;;;;;;;6063837;23;20028;-88
2023/12/13 11:29:00;;;;;;;31.58;16.55;;;;;;;;;;6109813;23;20056;-89
2023/12/13 11:31:26;;;;;;;36.15;15.93;;;;;;;;;;6064101;23;20362;-88
2023/12/13 11:33:55;;;;;;;37.88;15.95;;;;;;;;;;6087263;23;20032;-88
2023/12/13 11:36:22;;;;;;;30.35;15.85;;;;;;;;;;6142868;23;20021;-89
2023/12/13 11:38:51;;;;;;;32.42;15.65;;;;;;;;;;6086703;23;20021;-89
2023/12/13 11:41:17;;;;;;;36.05;15.48;;;;;;;;;;6088028;23;20025;-88
2023/12/13 11:43:44;;;;;;;38.70;16.60;;;;;;;;;;6137129;23;20037;-88
2023/12/13 11:49:52;;;;;;;35.88;15.32;;;;;;;;;;6083855;23;20021;-88
2023/12/13 11:52:18;;;;;;;37.22;15.93;;;;;;;;;;6028788;23;20018;-88
2023/12/13 11:54:44;;;;;;;35.05;15.50;;;;;;;;;;6066663;23;20056;-88
2023/12/13 12:03:30;;;;;;;29.33;13.68;;;;;;;;;;6138823;23;20529;-86
2023/12/13 12:06:23;;;;;;;37.47;15.55;;;;;;;;;;6137143;23;20037;-86
2023/12/13 12:09:22;;;;;;;38.10;15.90;;;;;;;;;;6061743;23;20054;-86
2023/12/13 12:12:27;;;;;;;34.60;14.75;;;;;;;;;;6129009;23;20801;-86
2023/12/13 12:15:44;;;;;;;38.90;14.95;;;;;;;;;;6099148;23;20048;-86
2023/12/13 12:18:52;;;;;;;38.95;15.80;;;;;;;;;;6139561;23;20028;-85
2023/12/13 12:22:09;;;;;;;;;;;;;;;;;;;;;
2023/12/13 12:31:45;;;;;;;33.80;15.15;;;;;;;;;;6123077;23;20540;-86
2023/12/13 13:20:34;;;;;;;;;;;;;;;;;;;;;
2023/12/13 13:50:55;;;;;;;;;;;;;;;;;;;;;
2023/12/13 14:01:10;;;;;;;35.05;15.05;;;;;;;;;;6054266;23;20040;-84
2023/12/13 15:11:39;;;;;;;6.80;4.03;;;;;;;;;;6115995;23;20022;-84
2023/12/13 15:18:02;;;;;;;6.90;4.20;;;;;;;;;;6113655;23;20077;-84
2023/12/13 15:20:44;;;;;;;7.00;3.75;;;;;;;;;;6113419;23;20049;-84
2023/12/13 15:23:37;;;;;;;5.95;3.88;;;;;;;;;;6093242;23;20320;-84
2023/12/13 15:26:09;;;;;;;5.95;3.85;;;;;;;;;;6102255;23;20024;-83
2023/12/13 15:39:03;;;;;;;;;;;;;;;;;;;;;
2023/12/13 16:06:53;;;;;;;2.92;2.50;;;;;;;;;;5933878;24;20225;-84
2023/12/13 16:10:24;;;;;;;;;;;;;;;;;;;;;
2023/12/13 18:16:27;;;;;;;5.88;4.75;;;;;;;;;;6154960;23;20055;-85
2023/12/13 22:22:16;;;;;;;;;;;;;;;;;;;;;
2023/12/13 22:52:38;;;;;;;;;;;;;;;;;;;;;
2023/12/13 23:10:23;;;;;;;10.25;6.72;;;;;;;;;;6086064;23;20454;-84
2023/12/13 23:13:30;;;;;;;10.65;6.70;;;;;;;;;;6033073;23;20581;-85
2023/12/13 23:29:28;;;;;;;9.93;6.70;;;;;;;;;;6138220;23;20034;-84
2023/12/13 23:31:54;;;;;;;12.95;6.68;;;;;;;;;;6062116;23;20704;-84
2023/12/13 23:34:20;;;;;;;9.00;6.40;;;;;;;;;;6064243;23;20072;-85
2023/12/13 23:36:49;;;;;;;9.68;6.53;;;;;;;;;;6063225;23;20737;-85
2023/12/13 23:39:21;;;;;;;11.32;6.50;;;;;;;;;;6089076;23;20072;-85
2023/12/13 23:41:56;;;;;;;7.72;5.70;;;;;;;;;;6063522;23;20022;-85
2023/12/13 23:44:32;;;;;;;8.20;5.93;;;;;;;;;;6062370;23;20025;-84
2023/12/13 23:47:04;;;;;;;10.70;6.45;;;;;;;;;;6085587;23;20093;-84
2023/12/13 23:52:37;;;;;;;8.00;5.32;;;;;;;;;;6126888;23;19944;-85
2023/12/13 23:55:09;;;;;;;8.52;5.65;;;;;;;;;;6086095;23;20041;-84
2023/12/13 23:57:59;;;;;;;10.88;5.68;;;;;;;;;;6088856;23;20049;-84
